Shasta Lake, CA

3:22 AM PST on January 18, 2017 (GMT -0800)
Lake Blvd & Shasta Dam Blvd, SL | | Change Station

Elev 936 ft 40.70 °N, 122.40 °W | Updated 15 seconds ago

Rain
Rain
42.6 °F
Feels Like 43 °F
N
0.7
Wind Variable Wind from East
Gusts 1.6 mph

Today
High -- | Low -- °F
--% Chance of Precip.
Yesterday
High -- | Low -- °F
Precip. -- in
Pressure 30.07 in
Visibility 2.0 miles
Clouds Scattered Clouds 1700 ft
Scattered Clouds 2700 ft
Overcast 5500 ft
Windchill 43 °F
Dew Point 42 °F
Humidity 99%
Rainfall 0.05 in
Snow Depth Not available.
7:29 AM 5:10 PM
Waning Gibbous, 64% visible
METAR KRDD 181053Z AUTO 00000KT 2SM -RA BR SCT017 SCT027 OVC055 07/06 A3007 RMK AO2 RAE08B52 SLP182 P0000 T00670061
Pressure 30.07 in
Visibility 2.0 miles
Clouds Scattered Clouds 1700 ft
Scattered Clouds 2700 ft
Overcast 5500 ft
Windchill 43 °F
Dew Point 42 °F
Humidity 99%
Rainfall 0.05 in
Snow Depth Not available.
7:29 AM 5:10 PM
Waning Gibbous, 64% visible
METAR KRDD 181053Z AUTO 00000KT 2SM -RA BR SCT017 SCT027 OVC055 07/06 A3007 RMK AO2 RAE08B52 SLP182 P0000 T00670061

Get Your Daily Forecast Email!

Thanks for signing up!

Be on the lookout for a verification email in your inbox.

You'll start receiving the daily forecast at 8 AM.

×

10-Day Weather Forecast

Almanac

Astronomy

Jan. 18, 2017 Rise Set
Actual Time
Civil Twilight
Nautical Twilight
Astronomical Twilight
Moon
Length of Visible Light
Length of Day
Tomorrow will be .
, % of the Moon is Illuminated

Today's Extremes

State Highs State Lows

Community

WunderPhotos

Upload Photos

1,962,540 photos uploaded!

WunderBlog® & News

Nearby

Air Quality

  Air Quality AQ Index Pollutant
Not available.

Snow Depth

Station Depth Elevation

Earthquake Activity

City Distance Mag. Time & Date
Minimum magnitude displayed is 2.5.

Coastal Water Temperatures

Place Temperature

Stations

Nearby Weather Stations

Station Location Temp. Windchill Dew Point Humidity Wind Precip. Elev Updated Type
                   

Watches & Warnings

There are currently no watches in effect.